createdAt,value
2018-11-13T00:00:53.381Z,17.90
2018-11-13T00:01:53.355Z,21.70
2018-11-13T00:02:53.365Z,20.40
2018-11-13T00:03:53.344Z,21.20
2018-11-13T00:04:53.400Z,17.20
2018-11-13T00:05:53.368Z,22.60
2018-11-13T00:06:53.337Z,21.60
2018-11-13T00:07:53.292Z,22.40
2018-11-13T00:08:53.291Z,20.80
2018-11-13T00:09:53.315Z,24.20
2018-11-13T00:10:53.261Z,18.90
2018-11-13T00:11:53.265Z,18.60
2018-11-13T00:12:53.260Z,19.10
2018-11-13T00:13:53.237Z,20.50
2018-11-13T00:14:53.216Z,20.50
2018-11-13T00:15:53.205Z,20.90
2018-11-13T00:16:53.214Z,19.50
2018-11-13T00:17:53.192Z,21.30
2018-11-13T00:18:53.182Z,21.50
2018-11-13T00:19:53.185Z,19.40
2018-11-13T00:20:53.155Z,19.60
2018-11-13T00:21:53.162Z,19.80
2018-11-13T00:22:53.131Z,19.80
2018-11-13T00:23:53.169Z,17.50
2018-11-13T00:24:53.112Z,19.60
2018-11-13T00:25:53.103Z,19.90
2018-11-13T00:26:53.103Z,20.20
2018-11-13T00:27:53.100Z,19.00
2018-11-13T00:28:53.061Z,23.20
2018-11-13T00:29:53.052Z,21.40
2018-11-13T00:30:53.067Z,20.50
2018-11-13T00:31:53.029Z,21.60
2018-11-13T00:32:53.036Z,19.00
2018-11-13T00:33:53.008Z,21.50
2018-11-13T00:34:53.008Z,20.00
2018-11-13T00:35:53.005Z,19.40
2018-11-13T00:36:52.973Z,21.10
2018-11-13T00:37:53.022Z,19.90
2018-11-13T00:38:52.958Z,19.40
2018-11-13T00:39:52.950Z,19.10
2018-11-13T00:40:52.940Z,23.60
2018-11-13T00:41:52.947Z,23.10
2018-11-13T00:42:52.909Z,23.30
2018-11-13T00:43:52.904Z,20.80
2018-11-13T00:44:52.894Z,21.30
2018-11-13T00:45:53.317Z,19.20
2018-11-13T00:46:52.879Z,20.10
2018-11-13T00:47:52.888Z,24.60
2018-11-13T00:48:52.847Z,23.00
2018-11-13T00:49:52.830Z,24.40
2018-11-13T00:50:52.820Z,22.70
2018-11-13T00:51:52.808Z,26.90
2018-11-13T00:52:52.818Z,25.40
2018-11-13T00:53:52.789Z,24.60
2018-11-13T00:54:52.814Z,26.00
2018-11-13T00:55:52.787Z,24.70
2018-11-13T00:56:52.758Z,28.90
2018-11-13T00:57:52.817Z,23.70
2018-11-13T00:58:52.731Z,25.50
2018-11-13T00:59:52.724Z,27.10
2018-11-13T01:00:52.895Z,28.00
2018-11-13T01:01:52.760Z,27.20
2018-11-13T01:02:52.731Z,29.00
2018-11-13T01:03:52.681Z,31.20
2018-11-13T01:04:52.669Z,25.50
2018-11-13T01:05:53.089Z,25.80
2018-11-13T01:06:52.662Z,26.80
2018-11-13T01:07:52.660Z,29.50
2018-11-13T01:08:52.625Z,26.10
2018-11-13T01:09:52.613Z,27.70
2018-11-13T01:10:52.601Z,26.80
2018-11-13T01:11:52.662Z,26.50
2018-11-13T01:12:52.606Z,25.40
2018-11-13T01:13:52.575Z,31.30
2018-11-13T01:14:52.614Z,28.40
2018-11-13T01:15:52.550Z,26.80
2018-11-13T01:16:52.537Z,26.30
2018-11-13T01:17:52.550Z,27.30
2018-11-13T01:18:52.540Z,25.90
2018-11-13T01:19:52.505Z,27.00
2018-11-13T01:20:52.497Z,32.00
2018-11-13T01:21:52.482Z,28.00
2018-11-13T01:22:52.491Z,24.40
2018-11-13T01:23:52.525Z,26.20
2018-11-13T01:24:52.463Z,27.40
2018-11-13T01:25:52.444Z,29.00
2018-11-13T01:26:52.429Z,26.30
2018-11-13T01:27:52.439Z,27.10
2018-11-13T01:28:52.407Z,28.10
2018-11-13T01:29:52.395Z,28.50
2018-11-13T01:30:52.386Z,26.40
2018-11-13T01:31:52.384Z,25.90
2018-11-13T01:32:52.385Z,26.10
2018-11-13T01:33:52.354Z,28.20
2018-11-13T01:34:52.342Z,26.40
2018-11-13T01:35:52.333Z,24.90
2018-11-13T01:36:52.320Z,25.60
2018-11-13T01:37:52.353Z,29.60
2018-11-13T01:38:52.297Z,26.20
2018-11-13T01:39:52.287Z,27.70
2018-11-13T01:40:52.279Z,22.80
2018-11-13T01:41:52.306Z,23.70
2018-11-13T01:42:52.276Z,23.70
2018-11-13T01:43:52.244Z,24.70
2018-11-13T01:44:52.235Z,20.70
2018-11-13T01:45:52.236Z,17.10
2018-11-13T01:46:52.243Z,13.90
2018-11-13T01:47:52.242Z,15.30
2018-11-13T01:48:52.195Z,15.60
2018-11-13T01:49:52.258Z,15.50
2018-11-13T01:50:52.172Z,14.70
2018-11-13T01:51:52.188Z,13.50
2018-11-13T01:52:52.169Z,12.20
2018-11-13T01:53:52.135Z,12.30
2018-11-13T01:54:52.160Z,13.50
2018-11-13T01:55:52.113Z,11.90
2018-11-13T01:56:52.119Z,11.50
2018-11-13T01:57:52.108Z,12.20
2018-11-13T01:58:52.084Z,13.40
2018-11-13T01:59:52.074Z,11.70
2018-11-13T02:00:52.076Z,12.00
2018-11-13T02:01:52.061Z,9.80
2018-11-13T02:02:52.062Z,11.60
2018-11-13T02:03:52.027Z,11.00
2018-11-13T02:04:52.049Z,10.40
2018-11-13T02:05:52.008Z,13.70
2018-11-13T02:06:51.989Z,9.50
2018-11-13T02:07:52.005Z,12.20
2018-11-13T02:08:51.988Z,12.60
2018-11-13T02:09:51.966Z,10.50
2018-11-13T02:10:51.948Z,10.80
2018-11-13T02:11:51.943Z,9.30
2018-11-13T02:12:51.949Z,10.40
2018-11-13T02:13:51.917Z,11.70
2018-11-13T02:14:51.908Z,10.10
2018-11-13T02:15:51.909Z,9.50
2018-11-13T02:16:51.888Z,9.80
2018-11-13T02:17:51.918Z,11.40
2018-11-13T02:18:51.863Z,8.70
2018-11-13T02:19:51.848Z,9.60
2018-11-13T02:20:51.843Z,11.50
2018-11-13T02:21:51.831Z,9.90
2018-11-13T02:22:51.825Z,11.40
2018-11-13T02:23:51.824Z,8.70
2018-11-13T02:24:51.798Z,9.70
2018-11-13T02:25:51.793Z,8.80
2018-11-13T02:26:51.777Z,8.80
2018-11-13T02:27:51.802Z,9.00
2018-11-13T02:28:51.776Z,8.10
2018-11-13T02:29:51.750Z,8.00
2018-11-13T02:30:51.731Z,7.40
2018-11-13T02:31:51.723Z,6.80
2018-11-13T02:32:51.710Z,8.10
2018-11-13T02:33:51.725Z,8.80
2018-11-13T02:34:51.690Z,8.20
2018-11-13T02:35:51.683Z,8.50
2018-11-13T02:36:51.665Z,7.80
2018-11-13T02:37:51.656Z,6.90
2018-11-13T02:38:51.646Z,7.50
2018-11-13T02:39:51.652Z,9.40
2018-11-13T02:40:51.627Z,8.70
2018-11-13T02:41:51.632Z,7.60
2018-11-13T02:42:51.600Z,10.00
2018-11-13T02:43:51.589Z,8.40
2018-11-13T02:44:51.599Z,8.00
2018-11-13T02:45:51.568Z,7.50
2018-11-13T02:46:51.556Z,6.80
2018-11-13T02:47:51.549Z,7.70
2018-11-13T02:48:51.546Z,7.80
2018-11-13T02:49:51.551Z,7.30
2018-11-13T02:50:51.519Z,6.70
2018-11-13T02:51:51.502Z,7.40
2018-11-13T02:52:51.498Z,7.00
2018-11-13T02:53:51.488Z,8.70
2018-11-13T02:54:51.536Z,8.30
2018-11-13T02:55:51.468Z,6.80
2018-11-13T02:56:51.449Z,7.00
2018-11-13T02:57:51.443Z,7.80
2018-11-13T02:58:51.433Z,6.90
2018-11-13T02:59:51.429Z,9.00
2018-11-13T03:00:51.439Z,8.70
2018-11-13T03:01:51.395Z,6.40
2018-11-13T03:02:51.386Z,6.40
2018-11-13T03:03:51.384Z,7.80
2018-11-13T03:04:51.361Z,6.10
2018-11-13T03:05:51.369Z,7.70
2018-11-13T03:06:51.340Z,7.00
2018-11-13T03:07:51.338Z,9.50
2018-11-13T03:08:51.327Z,7.30
2018-11-13T03:09:51.304Z,7.00
2018-11-13T03:10:51.312Z,5.60
2018-11-13T03:11:51.285Z,6.30
2018-11-13T03:12:51.273Z,6.70
2018-11-13T03:13:51.318Z,6.30
2018-11-13T03:14:51.269Z,7.10
2018-11-13T03:15:51.270Z,6.10
2018-11-13T03:16:51.227Z,6.00
2018-11-13T03:17:51.228Z,6.90
2018-11-13T03:18:51.207Z,6.80
2018-11-13T03:19:51.202Z,6.40
2018-11-13T03:20:51.210Z,7.30
2018-11-13T03:21:51.202Z,7.20
2018-11-13T03:22:51.167Z,6.00
2018-11-13T03:23:51.155Z,6.80
2018-11-13T03:24:51.151Z,6.80
2018-11-13T03:25:51.135Z,6.80
2018-11-13T03:26:51.169Z,5.80
2018-11-13T03:27:51.121Z,6.30
2018-11-13T03:28:51.110Z,6.90
2018-11-13T03:29:51.091Z,5.70
2018-11-13T03:30:51.109Z,6.10
2018-11-13T03:31:51.095Z,5.80
2018-11-13T03:32:51.060Z,6.60
2018-11-13T03:33:51.045Z,9.10
2018-11-13T03:34:51.038Z,6.50
2018-11-13T03:35:51.043Z,6.30
2018-11-13T03:36:51.015Z,7.50
2018-11-13T03:37:51.005Z,5.60
2018-11-13T03:38:50.995Z,5.80
2018-11-13T03:39:50.989Z,6.80
2018-11-13T03:40:50.985Z,6.10
2018-11-13T03:41:50.963Z,5.20
2018-11-13T03:42:50.958Z,5.40
2018-11-13T03:43:50.938Z,6.10
2018-11-13T03:44:50.923Z,5.80
2018-11-13T03:45:50.943Z,6.80
2018-11-13T03:46:50.903Z,5.30
2018-11-13T03:47:50.897Z,5.50
2018-11-13T03:48:50.880Z,4.80
2018-11-13T03:49:50.871Z,5.70
2018-11-13T03:50:50.879Z,3.90
2018-11-13T03:51:50.867Z,7.40
2018-11-13T03:52:50.880Z,4.70
2018-11-13T03:53:50.869Z,5.20
2018-11-13T03:54:50.827Z,3.50
2018-11-13T03:55:50.829Z,3.60
2018-11-13T03:56:50.798Z,4.30
2018-11-13T03:57:50.785Z,3.50
2018-11-13T03:58:50.776Z,4.00
2018-11-13T03:59:50.766Z,3.70
2018-11-13T04:00:50.821Z,4.30
2018-11-13T04:01:50.747Z,3.30
2018-11-13T04:02:50.724Z,3.60
2018-11-13T04:03:50.721Z,3.80
2018-11-13T04:04:50.713Z,2.50
2018-11-13T04:05:50.718Z,3.10
2018-11-13T04:06:50.697Z,2.60
2018-11-13T04:07:50.675Z,2.80
2018-11-13T04:08:50.669Z,3.90
2018-11-13T04:09:50.653Z,3.20
2018-11-13T04:10:50.661Z,3.70
2018-11-13T04:11:50.630Z,3.70
2018-11-13T04:12:50.616Z,2.70
2018-11-13T04:13:50.626Z,2.70
2018-11-13T04:14:50.596Z,3.70
2018-11-13T04:15:50.609Z,3.70
2018-11-13T04:16:50.582Z,5.00
2018-11-13T04:17:50.564Z,3.60
2018-11-13T04:18:50.558Z,3.20
2018-11-13T04:19:50.549Z,3.80
2018-11-13T04:20:50.531Z,5.00
2018-11-13T04:21:50.540Z,4.40
2018-11-13T04:22:50.529Z,4.40
2018-11-13T04:23:50.501Z,2.80
2018-11-13T04:24:50.497Z,4.50
2018-11-13T04:25:50.478Z,4.40
2018-11-13T04:26:50.542Z,4.30
2018-11-13T04:27:50.482Z,4.00
2018-11-13T04:28:50.446Z,3.60
2018-11-13T04:29:50.439Z,3.10
2018-11-13T04:30:50.450Z,4.50
2018-11-13T04:31:50.436Z,3.80
2018-11-13T04:32:50.406Z,3.80
2018-11-13T04:33:50.403Z,4.50
2018-11-13T04:34:50.398Z,4.50
2018-11-13T04:35:50.369Z,5.10
2018-11-13T04:36:50.390Z,4.80
2018-11-13T04:37:50.352Z,4.40
2018-11-13T04:38:50.367Z,4.40
2018-11-13T04:39:50.332Z,4.50
2018-11-13T04:40:50.314Z,5.00
2018-11-13T04:41:50.354Z,4.80
2018-11-13T04:42:50.296Z,4.00
2018-11-13T04:43:50.292Z,4.30
2018-11-13T04:44:50.272Z,4.40
2018-11-13T04:45:50.259Z,3.50
2018-11-13T04:46:50.251Z,5.80
2018-11-13T04:47:50.259Z,4.30
2018-11-13T04:48:50.226Z,5.20
2018-11-13T04:49:50.227Z,5.00
2018-11-13T04:50:50.205Z,4.40
2018-11-13T04:51:50.198Z,3.70
2018-11-13T04:52:50.206Z,4.10
2018-11-13T04:53:50.176Z,5.70
2018-11-13T04:54:50.164Z,4.40
2018-11-13T04:55:50.165Z,5.20
2018-11-13T04:56:50.144Z,5.20
2018-11-13T04:57:50.156Z,4.00
2018-11-13T04:58:50.130Z,4.30
2018-11-13T04:59:50.109Z,3.70
2018-11-13T05:00:50.097Z,5.80
2018-11-13T05:01:50.097Z,4.60
2018-11-13T05:02:50.275Z,4.70
2018-11-13T05:03:50.065Z,4.00
2018-11-13T05:04:50.058Z,5.10
2018-11-13T05:05:50.042Z,5.60
2018-11-13T05:06:50.031Z,4.20
2018-11-13T05:07:50.042Z,4.50
2018-11-13T05:08:50.021Z,5.80
2018-11-13T05:09:49.997Z,4.90
2018-11-13T05:10:49.987Z,4.30
2018-11-13T05:11:49.979Z,4.90
2018-11-13T05:12:49.985Z,4.80
2018-11-13T05:13:49.962Z,4.40
2018-11-13T05:14:49.967Z,4.60
2018-11-13T05:15:49.933Z,4.70
2018-11-13T05:16:49.919Z,4.70
2018-11-13T05:17:49.932Z,4.60
2018-11-13T05:18:49.906Z,6.40
2018-11-13T05:19:49.886Z,4.50
2018-11-13T05:20:49.882Z,4.70
2018-11-13T05:21:49.866Z,4.50
2018-11-13T05:22:49.873Z,6.50
2018-11-13T05:23:49.845Z,5.20
2018-11-13T05:24:49.836Z,5.90
2018-11-13T05:25:49.827Z,4.80
2018-11-13T05:26:49.818Z,5.60
2018-11-13T05:27:49.825Z,6.60
2018-11-13T05:28:49.789Z,5.20
2018-11-13T05:29:49.778Z,5.10
2018-11-13T05:30:49.775Z,4.90
2018-11-13T05:31:49.762Z,4.60
2018-11-13T05:32:49.753Z,5.20
2018-11-13T05:33:49.754Z,5.30
2018-11-13T05:34:49.728Z,5.00
2018-11-13T05:35:49.711Z,7.00
2018-11-13T05:36:49.704Z,4.40
2018-11-13T05:37:49.690Z,4.30
2018-11-13T05:38:49.708Z,4.40
2018-11-13T05:39:49.668Z,5.30
2018-11-13T05:40:49.656Z,6.00
2018-11-13T05:41:49.753Z,5.20
2018-11-13T05:42:49.643Z,5.40
2018-11-13T05:43:49.645Z,4.90
2018-11-13T05:44:49.650Z,4.90
2018-11-13T05:45:49.643Z,7.40
2018-11-13T05:46:49.602Z,5.30
2018-11-13T05:47:49.631Z,5.60
2018-11-13T05:48:49.598Z,6.00
2018-11-13T05:49:49.563Z,4.50
2018-11-13T05:50:49.558Z,5.50
2018-11-13T05:51:49.558Z,5.20
2018-11-13T05:52:49.531Z,5.30
2018-11-13T05:53:49.526Z,5.90
2018-11-13T05:54:49.537Z,4.00
2018-11-13T05:55:49.496Z,5.40
2018-11-13T05:56:49.501Z,4.30
2018-11-13T05:57:49.475Z,4.70
2018-11-13T06:00:08.950Z,6.10
2018-11-13T06:01:09.018Z,5.10
2018-11-13T06:02:08.860Z,4.70
2018-11-13T06:03:08.996Z,5.10
2018-11-13T06:04:08.854Z,6.70
2018-11-13T06:05:08.903Z,4.90
2018-11-13T06:06:08.820Z,5.90
2018-11-13T06:07:08.837Z,5.20
2018-11-13T06:08:08.815Z,5.30
2018-11-13T06:09:08.784Z,5.70
2018-11-13T06:10:08.888Z,6.20
2018-11-13T06:11:08.773Z,5.70
2018-11-13T06:12:08.761Z,5.60
2018-11-13T06:13:08.744Z,7.50
2018-11-13T06:14:08.838Z,6.00
2018-11-13T06:15:08.741Z,5.10
2018-11-13T06:16:08.713Z,6.30
2018-11-13T06:17:08.703Z,5.60
2018-11-13T06:18:08.787Z,4.90
2018-11-13T06:19:08.695Z,4.80
2018-11-13T06:20:08.717Z,4.50
2018-11-13T06:21:08.659Z,4.70
2018-11-13T06:22:08.688Z,4.30
2018-11-13T06:23:08.711Z,5.20
2018-11-13T06:24:08.620Z,5.50
2018-11-13T06:25:08.618Z,5.00
2018-11-13T06:26:08.619Z,5.10
2018-11-13T06:27:08.588Z,5.40
2018-11-13T06:28:08.683Z,4.40
2018-11-13T06:29:08.630Z,5.60
2018-11-13T06:30:08.591Z,5.60
2018-11-13T06:31:08.568Z,4.30
2018-11-13T06:32:08.543Z,4.10
2018-11-13T06:33:08.561Z,7.10
2018-11-13T06:34:08.563Z,5.50
2018-11-13T06:35:08.543Z,3.90
2018-11-13T06:36:08.499Z,4.50
2018-11-13T06:37:08.478Z,5.90
2018-11-13T06:38:08.474Z,3.90
2018-11-13T06:39:08.476Z,5.30
2018-11-13T06:40:08.471Z,6.40
2018-11-13T06:41:08.431Z,5.80
2018-11-13T06:42:08.425Z,3.80
2018-11-13T06:43:08.444Z,6.60
2018-11-13T06:44:08.420Z,4.40
2018-11-13T06:45:08.472Z,7.10
2018-11-13T06:46:08.378Z,4.40
2018-11-13T06:47:08.374Z,5.40
2018-11-13T06:48:08.370Z,4.80
2018-11-13T06:49:08.460Z,4.30
2018-11-13T06:50:08.394Z,4.10
2018-11-13T06:51:08.324Z,5.20
2018-11-13T06:52:08.309Z,4.90
2018-11-13T06:53:08.311Z,4.80
2018-11-13T06:54:08.287Z,4.20
2018-11-13T06:55:08.286Z,4.80
2018-11-13T06:56:08.313Z,4.40
2018-11-13T06:57:08.269Z,4.20
2018-11-13T06:58:08.242Z,4.00
2018-11-13T06:59:08.242Z,5.30
2018-11-13T07:00:08.241Z,2.80
2018-11-13T07:01:08.245Z,3.40
2018-11-13T07:02:08.206Z,4.40
2018-11-13T07:03:08.220Z,4.00
2018-11-13T07:04:08.178Z,4.00
2018-11-13T07:05:08.232Z,3.70
2018-11-13T07:06:08.195Z,4.00
2018-11-13T07:07:08.159Z,4.30
2018-11-13T07:08:08.139Z,4.40
2018-11-13T07:09:08.123Z,6.30
2018-11-13T07:10:08.121Z,3.40
2018-11-13T07:11:08.163Z,3.70
2018-11-13T07:12:08.096Z,3.20
2018-11-13T07:13:08.090Z,5.30
2018-11-13T07:14:08.070Z,2.70
2018-11-13T07:15:08.056Z,3.40
2018-11-13T07:16:08.080Z,3.20
2018-11-13T07:17:08.050Z,3.80
2018-11-13T07:18:08.025Z,2.10
2018-11-13T07:19:08.020Z,2.50
2018-11-13T07:20:08.012Z,3.70
2018-11-13T07:21:08.023Z,3.20
2018-11-13T07:22:08.008Z,2.90
2018-11-13T07:23:07.975Z,4.40
2018-11-13T07:24:07.976Z,3.40
2018-11-13T07:25:07.981Z,3.30
2018-11-13T07:26:07.937Z,3.20
2018-11-13T07:27:07.945Z,5.70
2018-11-13T07:28:08.076Z,4.10
2018-11-13T07:29:07.928Z,7.10
2018-11-13T07:30:07.949Z,4.10
2018-11-13T07:31:07.949Z,4.00
2018-11-13T07:32:07.910Z,4.50
2018-11-13T07:33:07.886Z,3.20
2018-11-13T07:34:07.859Z,4.10
2018-11-13T07:35:07.860Z,3.00
2018-11-13T07:36:08.114Z,3.80
2018-11-13T07:37:07.943Z,4.10
2018-11-13T07:38:07.839Z,4.10
2018-11-13T07:39:07.805Z,2.70
2018-11-13T07:40:07.810Z,3.60
2018-11-13T07:41:07.917Z,3.50
2018-11-13T07:42:07.809Z,3.30
2018-11-13T07:43:07.795Z,3.70
2018-11-13T07:44:07.750Z,4.10
2018-11-13T07:45:07.723Z,5.60
2018-11-13T07:46:07.725Z,3.50
2018-11-13T07:47:07.844Z,5.40
2018-11-13T07:48:07.785Z,5.10
2018-11-13T07:49:07.684Z,6.30
2018-11-13T07:50:07.702Z,3.70
2018-11-13T07:51:07.725Z,6.90
2018-11-13T07:52:07.693Z,4.30
2018-11-13T07:53:07.643Z,5.90
2018-11-13T07:54:07.643Z,4.30
2018-11-13T07:55:07.688Z,3.10
2018-11-13T07:56:07.613Z,4.90
2018-11-13T07:57:07.613Z,5.90
2018-11-13T07:58:07.604Z,2.80
2018-11-13T07:59:07.571Z,8.20
2018-11-13T08:00:07.565Z,3.70
2018-11-13T08:01:07.740Z,3.90
2018-11-13T08:02:07.558Z,5.40
2018-11-13T08:03:07.535Z,6.00
2018-11-13T08:04:07.539Z,4.40
2018-11-13T08:05:07.505Z,4.60
2018-11-13T08:06:07.563Z,3.70
2018-11-13T08:07:07.536Z,3.10
2018-11-13T08:08:07.476Z,3.30
2018-11-13T08:09:07.484Z,4.20
2018-11-13T08:10:07.448Z,4.30
2018-11-13T08:11:07.438Z,5.10
2018-11-13T08:12:07.444Z,4.50
2018-11-13T08:13:07.549Z,4.20
2018-11-13T08:14:07.404Z,4.20
2018-11-13T08:15:07.395Z,3.40
2018-11-13T08:16:07.381Z,4.40
2018-11-13T08:17:07.400Z,4.30
2018-11-13T08:18:07.363Z,3.70
2018-11-13T08:19:07.350Z,4.70
2018-11-13T08:20:07.378Z,4.60
2018-11-13T08:21:07.359Z,4.10
2018-11-13T08:22:07.390Z,4.20
2018-11-13T08:23:07.324Z,3.90
2018-11-13T08:24:07.297Z,3.20
2018-11-13T08:25:07.308Z,3.80
2018-11-13T08:26:07.310Z,4.80
2018-11-13T08:27:07.285Z,3.50
2018-11-13T08:28:07.273Z,3.20
2018-11-13T08:29:07.255Z,4.10
2018-11-13T08:30:07.232Z,3.90
2018-11-13T08:31:07.226Z,3.30
2018-11-13T08:32:07.235Z,10.60
2018-11-13T08:33:07.227Z,3.90
2018-11-13T08:34:07.189Z,4.70
2018-11-13T08:35:07.269Z,3.10
2018-11-13T08:36:07.165Z,4.50
2018-11-13T08:37:07.170Z,5.90
2018-11-13T08:38:07.144Z,6.70
2018-11-13T08:39:07.128Z,3.80
2018-11-13T08:40:07.274Z,5.40
2018-11-13T08:41:07.180Z,6.40
2018-11-13T08:42:07.116Z,5.00
2018-11-13T08:43:07.147Z,3.20
2018-11-13T08:44:07.077Z,2.70
2018-11-13T08:45:07.077Z,3.50
2018-11-13T08:46:07.049Z,4.10
2018-11-13T08:47:07.065Z,5.60
2018-11-13T08:48:07.030Z,5.00
2018-11-13T08:49:07.046Z,5.70
2018-11-13T08:50:07.020Z,4.80
2018-11-13T08:51:06.996Z,8.00
2018-11-13T08:52:06.988Z,5.90
2018-11-13T08:53:07.004Z,3.50
2018-11-13T08:54:06.966Z,4.90
2018-11-13T08:55:06.949Z,4.40
2018-11-13T08:56:06.939Z,4.80
2018-11-13T08:57:06.932Z,4.40
2018-11-13T08:58:06.939Z,3.90
2018-11-13T08:59:07.073Z,5.00
2018-11-13T09:00:06.910Z,2.70
2018-11-13T09:01:06.907Z,2.90
2018-11-13T09:02:06.875Z,7.60
2018-11-13T09:03:06.942Z,6.90
2018-11-13T09:04:06.856Z,4.00
2018-11-13T09:05:06.917Z,8.40
2018-11-13T09:06:06.833Z,5.50
2018-11-13T09:07:06.822Z,5.70
2018-11-13T09:08:06.828Z,7.50
2018-11-13T09:09:06.841Z,5.40
2018-11-13T09:10:06.791Z,8.10
2018-11-13T09:11:06.828Z,6.50
2018-11-13T09:12:06.776Z,7.80
2018-11-13T09:13:06.777Z,8.90
2018-11-13T09:14:06.750Z,6.40
2018-11-13T09:15:06.736Z,6.40
2018-11-13T09:16:06.729Z,5.70
2018-11-13T09:17:06.766Z,6.10
2018-11-13T09:18:06.771Z,8.10
2018-11-13T09:19:06.940Z,7.60
2018-11-13T09:20:06.688Z,6.90
2018-11-13T09:21:06.672Z,5.30
2018-11-13T09:22:06.669Z,5.40
2018-11-13T09:23:06.680Z,5.70
2018-11-13T09:24:06.643Z,8.20
2018-11-13T09:25:06.627Z,6.00
2018-11-13T09:26:06.616Z,6.00
2018-11-13T09:27:06.609Z,3.20
2018-11-13T09:28:06.597Z,7.40
2018-11-13T09:29:06.604Z,5.20
2018-11-13T09:30:06.679Z,5.20
2018-11-13T09:31:06.614Z,5.50
2018-11-13T09:32:06.622Z,6.40
2018-11-13T09:33:06.608Z,8.80
2018-11-13T09:34:06.544Z,5.30
2018-11-13T09:35:06.547Z,7.10
2018-11-13T09:36:06.501Z,7.20
2018-11-13T09:37:06.499Z,7.90
2018-11-13T09:38:06.479Z,9.10
2018-11-13T09:39:06.494Z,5.10
2018-11-13T09:40:06.483Z,7.20
2018-11-13T09:41:06.445Z,5.80
2018-11-13T09:42:06.438Z,8.70
2018-11-13T09:43:06.427Z,9.60
2018-11-13T09:44:06.434Z,9.20
2018-11-13T09:45:06.403Z,8.10
2018-11-13T09:46:06.557Z,9.80
2018-11-13T09:47:06.381Z,8.20
2018-11-13T09:48:06.411Z,7.20
2018-11-13T09:49:06.385Z,5.60
2018-11-13T09:50:06.351Z,9.80
2018-11-13T09:51:06.353Z,9.80
2018-11-13T09:52:06.347Z,4.50
2018-11-13T09:53:06.317Z,4.80
2018-11-13T09:54:06.330Z,6.10
2018-11-13T09:55:06.299Z,6.70
2018-11-13T09:56:06.311Z,7.30
2018-11-13T09:57:06.276Z,5.90
2018-11-13T09:58:06.267Z,4.30
2018-11-13T09:59:06.263Z,7.20
2018-11-13T10:00:06.556Z,7.40
2018-11-13T10:01:06.415Z,5.00
2018-11-13T10:02:06.795Z,4.90
2018-11-13T10:03:06.872Z,6.10
2018-11-13T10:04:06.803Z,2.10
2018-11-13T10:05:07.125Z,6.00
2018-11-13T10:06:06.180Z,5.40
2018-11-13T10:07:06.160Z,4.70
2018-11-13T10:08:06.151Z,7.00
2018-11-13T10:09:06.188Z,7.00
2018-11-13T10:10:06.140Z,4.40
2018-11-13T10:11:06.126Z,5.50
2018-11-13T10:12:06.107Z,4.40
2018-11-13T10:13:06.100Z,11.30
2018-11-13T10:14:06.090Z,5.50
2018-11-13T10:15:06.125Z,5.60
2018-11-13T10:16:06.111Z,5.60
2018-11-13T10:17:06.074Z,5.40
2018-11-13T10:18:06.212Z,8.30
2018-11-13T10:19:06.044Z,4.70
2018-11-13T10:20:06.061Z,4.10
2018-11-13T10:21:06.007Z,4.80
2018-11-13T10:22:05.993Z,4.70
2018-11-13T10:23:05.994Z,3.30
2018-11-13T10:24:05.997Z,5.80
2018-11-13T10:25:05.984Z,3.90
2018-11-13T10:26:05.993Z,5.30
2018-11-13T10:27:05.973Z,5.30
2018-11-13T10:28:05.938Z,5.20
2018-11-13T10:29:05.921Z,7.50
2018-11-13T10:30:05.940Z,6.20
2018-11-13T10:31:05.899Z,6.10
2018-11-13T10:32:05.885Z,5.10
2018-11-13T10:33:05.901Z,4.30
2018-11-13T10:34:05.875Z,5.50
2018-11-13T10:35:05.871Z,3.50
2018-11-13T10:36:05.845Z,4.10
2018-11-13T10:37:05.869Z,3.90
2018-11-13T10:38:05.826Z,3.60
2018-11-13T10:39:05.811Z,6.60
2018-11-13T10:40:05.881Z,4.50
2018-11-13T10:41:05.879Z,6.90
2018-11-13T10:42:05.775Z,5.90
2018-11-13T10:43:05.810Z,5.30
2018-11-13T10:44:05.766Z,6.30
2018-11-13T10:45:05.773Z,7.20
2018-11-13T10:46:05.736Z,5.60
2018-11-13T10:47:05.721Z,3.60
2018-11-13T10:48:05.715Z,5.50
2018-11-13T10:49:05.771Z,4.90
2018-11-13T10:50:05.761Z,3.70
2018-11-13T10:51:05.678Z,7.20
2018-11-13T10:52:05.668Z,5.30
2018-11-13T10:53:05.657Z,8.60
2018-11-13T10:54:05.655Z,7.70
2018-11-13T10:55:05.664Z,5.30
2018-11-13T10:56:05.623Z,5.70
2018-11-13T10:57:05.619Z,4.10
2018-11-13T10:58:05.638Z,6.30
2018-11-13T10:59:05.619Z,6.40
2018-11-13T11:00:05.619Z,4.20
2018-11-13T11:01:05.620Z,6.20
2018-11-13T11:02:05.557Z,4.30
2018-11-13T11:03:05.730Z,2.40
2018-11-13T11:04:05.549Z,7.50
2018-11-13T11:05:05.557Z,4.00
2018-11-13T11:06:05.535Z,2.70
2018-11-13T11:07:05.507Z,3.00
2018-11-13T11:08:05.539Z,6.80
2018-11-13T11:09:05.504Z,4.00
2018-11-13T11:10:05.478Z,3.60
2018-11-13T11:11:05.484Z,8.60
2018-11-13T11:12:05.485Z,5.90
2018-11-13T11:13:05.631Z,5.10
2018-11-13T11:14:05.657Z,5.00
2018-11-13T11:15:05.431Z,4.30
2018-11-13T11:16:05.434Z,4.80
2018-11-13T11:17:05.403Z,3.20
2018-11-13T11:18:05.453Z,4.00
2018-11-13T11:19:05.427Z,2.90
2018-11-13T11:20:05.362Z,8.30
2018-11-13T11:21:05.463Z,6.90
2018-11-13T11:22:05.344Z,5.60
2018-11-13T11:23:05.422Z,2.80
2018-11-13T11:24:05.395Z,3.60
2018-11-13T11:25:05.310Z,5.20
2018-11-13T11:26:05.319Z,3.30
2018-11-13T11:27:05.314Z,4.70
2018-11-13T11:28:05.333Z,4.70
2018-11-13T11:29:05.312Z,3.60
2018-11-13T11:30:05.252Z,2.70
2018-11-13T11:31:05.330Z,4.50
2018-11-13T11:32:05.236Z,3.20
2018-11-13T11:33:05.237Z,3.70
2018-11-13T11:34:05.215Z,4.10
2018-11-13T11:35:05.196Z,3.70
2018-11-13T11:36:05.251Z,4.90
2018-11-13T11:37:05.236Z,5.50
2018-11-13T11:38:05.174Z,4.90
2018-11-13T11:39:05.321Z,3.50
2018-11-13T11:40:05.165Z,6.00
2018-11-13T11:41:05.130Z,6.40
2018-11-13T11:42:05.137Z,6.40
2018-11-13T11:43:05.105Z,4.10
2018-11-13T11:44:05.093Z,2.80
2018-11-13T11:45:05.092Z,5.10
2018-11-13T11:46:05.068Z,7.00
2018-11-13T11:47:05.075Z,7.40
2018-11-13T11:48:05.050Z,5.40
2018-11-13T11:49:05.037Z,3.30
2018-11-13T11:50:05.045Z,3.10
2018-11-13T11:51:05.048Z,7.40
2018-11-13T11:52:05.047Z,6.30
2018-11-13T11:53:05.016Z,8.20
2018-11-13T11:54:04.987Z,6.60
2018-11-13T11:55:04.998Z,8.10
2018-11-13T11:56:04.998Z,3.20
2018-11-13T11:57:04.952Z,7.10
2018-11-13T11:58:04.956Z,7.20
2018-11-13T11:59:04.929Z,6.40
2018-11-13T12:00:04.916Z,6.60
2018-11-13T12:01:04.908Z,5.60
2018-11-13T12:02:04.924Z,6.30
2018-11-13T12:03:04.884Z,6.80
2018-11-13T12:04:04.889Z,5.50
2018-11-13T12:05:04.859Z,5.00
2018-11-13T12:06:04.855Z,6.90
2018-11-13T12:07:04.849Z,6.40
2018-11-13T12:08:04.854Z,4.90
2018-11-13T12:09:04.820Z,4.60
2018-11-13T12:10:04.800Z,3.50
2018-11-13T12:11:04.791Z,5.40
2018-11-13T12:12:04.814Z,3.20
2018-11-13T12:13:04.792Z,3.40
2018-11-13T12:14:04.759Z,7.90
2018-11-13T12:15:04.754Z,6.60
2018-11-13T12:16:04.739Z,4.10
2018-11-13T12:17:04.793Z,4.20
2018-11-13T12:18:04.734Z,3.10
2018-11-13T12:19:04.824Z,4.00
2018-11-13T12:20:04.700Z,5.30
2018-11-13T12:21:04.775Z,3.90
2018-11-13T12:22:04.676Z,4.50
2018-11-13T12:23:04.682Z,4.00
2018-11-13T12:24:04.649Z,6.20
2018-11-13T12:25:04.666Z,3.40
2018-11-13T12:26:04.639Z,5.20
2018-11-13T12:27:04.617Z,4.10
2018-11-13T12:28:04.654Z,5.70
2018-11-13T12:29:04.603Z,3.30
2018-11-13T12:30:04.608Z,3.50
2018-11-13T12:31:04.603Z,7.20
2018-11-13T12:32:04.565Z,4.60
2018-11-13T12:33:04.566Z,5.20
2018-11-13T12:34:04.540Z,6.00
2018-11-13T12:35:04.527Z,6.50
2018-11-13T12:36:04.645Z,6.60
2018-11-13T12:37:04.507Z,6.60
2018-11-13T12:38:04.516Z,3.80
2018-11-13T12:39:04.525Z,4.30
2018-11-13T12:40:04.477Z,6.20
2018-11-13T12:41:04.463Z,6.40
2018-11-13T12:42:04.448Z,4.00
2018-11-13T12:43:04.454Z,3.70
2018-11-13T12:44:04.454Z,6.80
2018-11-13T12:45:04.422Z,4.40
2018-11-13T12:46:04.406Z,5.70
2018-11-13T12:47:04.416Z,5.90
2018-11-13T12:48:04.709Z,6.70
2018-11-13T12:49:04.552Z,5.80
2018-11-13T12:50:04.358Z,3.80
2018-11-13T12:51:04.367Z,5.50
2018-11-13T12:52:04.348Z,5.00
2018-11-13T12:53:04.358Z,5.30
2018-11-13T12:54:04.310Z,7.30
2018-11-13T12:55:04.312Z,8.20
2018-11-13T12:56:04.323Z,6.20
2018-11-13T12:57:04.282Z,5.30
2018-11-13T12:58:04.295Z,5.50
2018-11-13T12:59:04.299Z,6.80
2018-11-13T13:00:04.257Z,6.90
2018-11-13T13:01:04.280Z,6.80
2018-11-13T13:02:04.939Z,7.80
2018-11-13T13:03:04.243Z,4.70
2018-11-13T13:04:04.223Z,5.60
2018-11-13T13:05:04.194Z,7.00
2018-11-13T13:06:04.182Z,5.80
2018-11-13T13:07:04.176Z,5.30
2018-11-13T13:08:04.237Z,2.70
2018-11-13T13:09:04.164Z,4.60
2018-11-13T13:10:04.173Z,4.70
2018-11-13T13:11:04.138Z,5.40
2018-11-13T13:12:04.175Z,4.30
2018-11-13T13:13:04.114Z,4.90
2018-11-13T13:14:04.205Z,2.60
2018-11-13T13:15:04.091Z,6.60